Silerton, Tennessee
Current Conditions -  °F | °C
As of 6:17 AM on Monday 24 Nov 2014 (Local Time) from KMKL Reporting Station
Overcast Overcast  
Wind Chill: 50°   Ceiling: 3600
Heat Index: 50°   Visibility: 10mi
Dew Point: 43°   Wind: 20mph
Humidity: 76%   Direction: 260°W
Pressure: 29.65"   Gusts: 29mph
Location:  35.34°N, 88.81°W
Report Text: KMKL 241217Z AUTO 26017G25KT 10SM FEW014 BKN036 OVC046 10/06 A2965 RMK AO2 PK WND 28028/1155 $
Loading
Personal Weather Stations






























Interactive Weather Map New forecast layout! Learn more

10-Day Weather Forecast

Advertisements
Track Severe Weather on mobile